Stations météo

réclame
Mon MeteoGroup
Nimes/Courbessac, France (7645): Température de l'air & dewpoint: 17.05.2018 01:00:00 - 23.05.2018 01:00:00 (CEST)Nimes/Courbessac, France (7645): Température de l'air 5cm: 17.05.2018 01:00:00 - 23.05.2018 01:00:00 (CEST)Nimes/Courbessac, France (7645): Température de l'air -20cm: 17.05.2018 01:00:00 - 23.05.2018 01:00:00 (CEST)Nimes/Courbessac, France (7645): Vitesse du vent & gusts: 17.05.2018 01:00:00 - 23.05.2018 01:00:00 (CEST)Nimes/Courbessac, France (7645): Direction du vent: 17.05.2018 01:00:00 - 23.05.2018 01:00:00 (CEST)Nimes/Courbessac, France (7645): reduced air pressure: 17.05.2018 01:00:00 - 23.05.2018 01:00:00 (CEST)Nimes/Courbessac, France (7645): Ensoleillement: 17.05.2018 01:00:00 - 23.05.2018 01:00:00 (CEST)Nimes/Courbessac, France (7645): Quantités de précipitations: 17.05.2018 01:00:00 - 23.05.2018 01:00:00 (CEST)
Date & Time tt [°C] td [°C] tt 5cm [°C] tt -20cm [°C] ff [km/h] ff [knt] fx [km/h] fx [knt] dd ppp [hPa] sd [min] rr [mm]
23.05.2018 01:00:00 15,2 14,4 14,9 21,0 3 2 6 3 N 1016,6 0 0,0
23.05.2018 00:00:00 15,3 14,5 14,8 21,2 0 0 9 5 N 1016,5 0 0,0
22.05.2018 23:00:00 15,5 14,5 15,1 21,3 5 3 10 6 NE 1016,0 0 0,0
22.05.2018 22:00:00 15,9 14,9 15,4 21,4 5 3 7 4 ENE 1015,6 0 0,0
22.05.2018 21:00:00 16,3 15,0 15,9 21,5 4 2 6 4 ENE 1015,3 0 0,0
22.05.2018 20:00:00 16,7 15,2 16,4 21,6 2 1 11 6 NW 1015,2 0 0,2
22.05.2018 19:00:00 16,6 15,5 15,8 21,6 5 3 7 4 E 1014,3 0 0,8
22.05.2018 18:00:00 15,7 14,7 15,4 21,7 3 2 8 5 N 1014,2 0 1,2
22.05.2018 17:00:00 15,4 14,4 13,4 21,7 4 2 52 28 NNW 1014,2 0 20,9
22.05.2018 16:00:00 17,8 11,6 17,2 21,4 29 16 53 29 NW 1014,3 20 0,0
22.05.2018 15:00:00 25,4 14,5 27,5 21,1 11 6 29 16 S 1012,4 47 0,0
22.05.2018 14:00:00 24,0 14,4 25,3 20,8 16 9 25 14 S 1012,5 27 0,0
22.05.2018 13:00:00 22,6 14,9 25,4 20,6 10 6 24 13 S 1012,8 1 0,0
22.05.2018 12:00:00 23,2 15,3 27,6 20,4 10 6 22 12 SSE 1012,8 58 0,0
22.05.2018 11:00:00 20,9 15,0 23,1 20,4 10 5 18 10 S 1012,9 56 0,0
22.05.2018 10:00:00 18,2 14,3 18,5 20,5 5 3 8 4 SSE 1013,1 0 0,0
22.05.2018 09:00:00 16,9 14,0 16,4 20,6 2 1 5 3 E 1013,0 0 0,0
22.05.2018 08:00:00 15,8 13,3 15,6 20,7 2 1 12 7 E 1012,9 0 0,0
22.05.2018 07:00:00 15,7 13,4 15,2 20,9 5 3 11 6 NW 1012,4 0 0,0
22.05.2018 06:00:00 15,7 13,2 15,0 21,0 4 2 5 3 NW 1012,3 0 0,0
22.05.2018 05:00:00 15,4 13,1 14,7 21,2 3 2 6 3 NE 1012,4 0 0,0
22.05.2018 04:00:00 15,7 13,0 15,4 21,3 4 2 12 6 NE 1012,4 0 0,0
22.05.2018 03:00:00 15,7 12,8 15,4 21,4 5 3 11 6 ESE 1012,3 0 0,0
22.05.2018 02:00:00 16,4 12,4 16,0 21,6 5 3 9 5 N 1012,1 0 0,0
22.05.2018 01:00:00 16,4 12,4 15,4 21,7 3 2 5 3 NNW 1012,3 0 0,0
22.05.2018 00:00:00 16,9 12,6 16,0 21,8 0 0 9 5 N 1012,5 0 0,0
21.05.2018 23:00:00 17,0 12,5 16,5 21,9 6 3 10 5 NE 1012,6 0 0,0
21.05.2018 22:00:00 17,6 12,5 16,5 21,9 5 3 10 5 N 1012,0 0 0,0
21.05.2018 21:00:00 18,1 12,5 17,4 21,9 3 2 29 15 NNE 1011,9 0 0,0
21.05.2018 20:00:00 20,8 13,2 20,6 21,8 10 5 18 10 ESE 1011,7 15 0,0
21.05.2018 19:00:00 22,0 14,4 23,7 21,7 10 5 21 11 E 1011,6 44 0,0
21.05.2018 18:00:00 22,4 14,0 24,6 21,4 16 9 30 16 ENE 1011,5 37 0,0
21.05.2018 17:00:00 22,9 12,2 25,2 21,1 24 13 40 21 SSE 1011,4 34 0,0
21.05.2018 16:00:00 25,0 11,5 30,3 20,8 11 6 30 16 SSW 1011,4 45 0,0
21.05.2018 15:00:00 25,6 11,0 30,4 20,5 12 7 28 15 SSW 1011,3 57 0,0
21.05.2018 14:00:00 24,6 11,5 28,1 20,2 9 5 18 10 S 1011,8 12 0,0
21.05.2018 13:00:00 25,0 12,6 28,4 20,0 5 3 14 8 ESE 1012,4 23 0,0
21.05.2018 12:00:00 24,0 12,3 27,6 19,9 5 3 16 9 ESE 1012,6 55 0,0
21.05.2018 11:00:00 23,5 12,2 24,0 19,8 5 3 13 7 ENE 1012,7 48 0,0
21.05.2018 10:00:00 20,5 12,5 23,3 19,9 8 5 17 9 NE 1013,2 35 0,0
21.05.2018 09:00:00 19,5 13,0 19,9 20,0 9 5 14 8 ENE 1013,6 60 0,0
21.05.2018 08:00:00 15,6 12,2 12,6 20,2 5 3 10 6 NNW 1013,7 54 0,0
21.05.2018 07:00:00 12,4 10,8 11,4 20,4 2 1 10 6 ESE 1013,5 8 0,0
21.05.2018 06:00:00 13,0 11,1 12,1 20,6 8 4 13 7 N 1013,3 0 0,0
21.05.2018 05:00:00 13,1 11,3 11,2 20,8 7 4 10 5 NNW 1013,3 0 0,0
21.05.2018 04:00:00 13,1 11,0 11,6 21,0 5 3 10 5 E 1013,7 0 0,0
21.05.2018 03:00:00 14,1 11,3 11,8 21,2 2 1 11 6 NNW 1013,7 0 0,0
21.05.2018 02:00:00 13,8 11,0 12,6 21,4 3 2 10 5 ESE 1014,2 0 0,0
21.05.2018 01:00:00 14,7 11,5 13,5 21,6 6 4 14 8 E 1014,8 0 0,0
21.05.2018 00:00:00 15,7 11,7 14,8 21,8 9 5 23 13 NNW 1014,9 0 0,0
20.05.2018 23:00:00 16,1 11,7 15,3 21,9 13 7 23 13 NNW 1015,0 0 0,0
20.05.2018 22:00:00 16,9 11,8 16,1 22,1 13 7 25 13 N 1014,6 0 0,0
20.05.2018 21:00:00 17,7 12,2 16,8 22,1 9 5 22 12 NE 1014,1 0 0,0
20.05.2018 20:00:00 19,3 13,2 18,9 22,1 0 0 11 6 N 1013,6 12 0,0
20.05.2018 19:00:00 20,1 11,8 19,6 21,9 14 7 27 14 ENE 1013,2 6 0,0
20.05.2018 18:00:00 21,5 15,8 18,8 21,7 13 7 41 22 SSW 1012,5 0 1,0
20.05.2018 17:00:00 25,2 12,4 28,0 21,3 16 9 27 15 S 1012,1 28 0,0
20.05.2018 16:00:00 26,9 9,3 32,9 20,8 8 4 20 11 S 1012,7 57 0,0
20.05.2018 15:00:00 26,6 11,5 34,4 20,4 9 5 21 11 S 1013,2 60 0,0
20.05.2018 14:00:00 25,8 9,6 32,8 20,1 5 3 18 10 SSE 1013,9 60 0,0
20.05.2018 13:00:00 25,1 10,5 29,4 19,8 9 5 24 13 N 1014,6 60 0,0
20.05.2018 12:00:00 25,1 11,6 29,4 19,7 13 7 29 16 NNE 1015,1 60 0,0
20.05.2018 11:00:00 22,6 11,6 22,3 19,7 13 7 25 14 N 1015,3 42 0,0
20.05.2018 10:00:00 19,6 11,1 20,5 19,7 12 6 24 13 N 1015,5 0 0,0
20.05.2018 09:00:00 18,3 11,1 17,7 19,8 6 4 17 9 NNE 1015,7 3 0,0
20.05.2018 08:00:00 16,0 11,6 14,9 20,0 5 3 6 4 N 1015,8 17 0,0
20.05.2018 07:00:00 14,2 11,0 12,3 20,1 4 2 10 5 N 1015,6 25 0,0
20.05.2018 06:00:00 13,1 10,6 12,1 20,3 5 3 9 5 N 1015,2 0 0,0
20.05.2018 05:00:00 14,1 11,1 12,8 20,5 3 1 10 5 NNW 1015,3 0 0,0
20.05.2018 04:00:00 14,4 11,2 13,7 20,7 4 2 14 8 N 1015,4 0 0,0
20.05.2018 03:00:00 14,0 11,5 13,0 20,9 5 3 14 8 NNW 1015,7 0 0,0
20.05.2018 02:00:00 14,6 11,6 13,8 21,0 5 3 21 12 NNW 1015,9 0 0,0
20.05.2018 01:00:00 14,9 12,0 14,1 21,2 8 4 16 9 NNW 1016,0 0 0,0
20.05.2018 00:00:00 15,5 12,4 14,6 21,4 10 5 17 9 NNW 1016,1 0 0,0
19.05.2018 23:00:00 15,8 12,7 14,6 21,5 8 5 21 12 NNW 1016,1 0 0,0
19.05.2018 22:00:00 15,7 13,4 14,8 21,6 12 7 34 19 NNW 1016,0 0 1,0
19.05.2018 21:00:00 17,1 13,4 16,5 21,5 16 9 39 21 NW 1015,8 0 0,0
19.05.2018 20:00:00 21,3 12,2 20,8 21,5 10 5 32 17 NW 1015,3 0 0,0
19.05.2018 19:00:00 22,7 11,7 23,0 21,3 13 7 27 14 SSE 1014,5 25 0,0
19.05.2018 18:00:00 24,1 11,8 26,4 21,0 22 12 35 19 SE 1014,1 29 0,0
19.05.2018 17:00:00 28,1 8,4 27,8 20,6 9 5 26 14 E 1013,6 47 0,0
19.05.2018 16:00:00 27,3 10,1 26,8 20,3 5 3 18 10 NNE 1014,2 43 0,0
19.05.2018 15:00:00 27,2 11,2 33,0 19,9 12 7 28 15 ENE 1014,5 60 0,0
19.05.2018 14:00:00 26,3 11,6 31,5 19,5 14 8 29 16 ENE 1014,9 60 0,0
19.05.2018 13:00:00 25,2 11,4 30,8 19,2 15 8 34 18 NNE 1015,4 60 0,0
19.05.2018 12:00:00 24,3 11,3 29,9 19,1 16 8 33 18 NNE 1016,0 60 0,0
19.05.2018 11:00:00 23,0 12,0 27,9 19,0 11 6 28 15 N 1016,1 60 0,0
19.05.2018 10:00:00 21,7 12,8 25,9 19,0 9 5 23 12 NNE 1016,4 60 0,0
19.05.2018 09:00:00 19,9 11,9 21,8 19,1 8 4 16 8 NNE 1016,3 60 0,0
19.05.2018 08:00:00 17,8 11,8 14,4 19,3 6 3 20 11 NNE 1015,8 60 0,0
19.05.2018 07:00:00 15,3 11,1 13,8 19,4 9 5 19 11 N 1015,6 24 0,0
19.05.2018 06:00:00 15,0 11,0 13,6 19,6 8 4 20 11 N 1015,2 0 0,0
19.05.2018 05:00:00 15,1 11,1 13,7 19,7 10 5 18 10 N 1015,3 0 0,0
19.05.2018 04:00:00 14,9 11,7 13,5 19,9 8 4 12 7 N 1015,7 0 0,0
19.05.2018 03:00:00 15,1 12,4 13,9 20,0 7 4 13 7 N 1016,1 0 0,0
19.05.2018 02:00:00 15,7 12,6 14,0 20,2 9 5 16 9 NNW 1016,4 0 0,0
19.05.2018 01:00:00 15,7 13,2 13,9 20,3 5 3 13 7 NNW 1016,7 0 0,0
19.05.2018 00:00:00 16,5 13,6 14,9 20,4 5 3 10 5 WNW 1016,9 0 0,0
18.05.2018 23:00:00 16,9 15,1 16,0 20,4 4 2 10 6 NNW 1016,6 0 0,0
18.05.2018 22:00:00 17,0 15,2 16,0 20,5 5 3 12 6 NW 1016,5 0 0,2
18.05.2018 21:00:00 17,4 14,3 16,0 20,4 8 5 31 17 E 1016,2 0 1,0
18.05.2018 20:00:00 20,2 11,1 20,1 20,3 14 8 30 16 NW 1015,8 9 0,0
18.05.2018 19:00:00 23,1 12,1 25,7 20,1 16 8 27 14 SSW 1015,0 55 0,0
18.05.2018 18:00:00 24,4 13,6 26,7 19,9 14 8 29 16 SW 1014,8 42 0,0
18.05.2018 17:00:00 26,6 11,9 26,8 19,6 6 3 11 6 E 1014,6 23 0,0
18.05.2018 16:00:00 25,9 12,0 26,4 19,3 4 2 13 7 ESE 1015,0 20 0,0
18.05.2018 15:00:00 24,4 11,4 28,2 18,8 4 2 14 7 NNW 1015,6 17 0,0
18.05.2018 14:00:00 25,9 11,3 30,0 18,5 6 3 25 14 NW 1015,9 51 0,0
18.05.2018 13:00:00 24,2 10,1 28,4 18,2 10 5 34 18 NE 1016,7 56 0,0
18.05.2018 12:00:00 23,6 12,3 28,6 18,0 13 7 29 16 ENE 1016,8 60 0,0
18.05.2018 11:00:00 21,6 10,7 26,6 17,9 16 9 29 16 NNE 1016,8 60 0,0
18.05.2018 10:00:00 20,3 11,0 23,6 18,0 18 10 29 16 NNE 1017,0 60 0,0
18.05.2018 09:00:00 18,7 11,7 20,9 18,1 15 8 35 19 N 1016,9 60 0,0
18.05.2018 08:00:00 17,3 11,8 14,2 18,2 14 8 24 13 NNE 1016,7 60 0,0
18.05.2018 07:00:00 15,3 11,5 10,8 18,3 5 3 19 11 NE 1016,7 21 0,0
18.05.2018 06:00:00 13,0 10,4 10,5 18,4 4 2 10 6 N 1016,6 0 0,0
18.05.2018 05:00:00 12,7 9,3 11,6 18,6 8 4 11 6 NNW 1016,5 0 0,0
18.05.2018 04:00:00 13,3 9,5 12,0 18,8 8 4 10 5 N 1016,4 0 0,0
18.05.2018 03:00:00 14,4 10,0 11,6 18,9 4 2 8 4 NNW 1016,7 0 0,0
18.05.2018 02:00:00 16,2 9,8 14,3 19,0 2 1 20 11 N 1016,7 0 0,0
18.05.2018 01:00:00 16,9 10,0 15,4 19,1 9 5 20 11 NNW 1016,9 0 0,0
18.05.2018 00:00:00 17,3 9,9 15,8 19,2 10 5 19 10 N 1016,6 0 0,0
17.05.2018 23:00:00 18,5 9,8 16,2 19,3 10 6 27 14 N 1016,6 0 0,0
17.05.2018 22:00:00 18,1 10,2 15,4 19,3 7 4 15 8 NNE 1015,9 0 0,0
17.05.2018 21:00:00 19,6 10,0 17,7 19,3 7 4 18 10 NE 1015,3 28 0,0
17.05.2018 20:00:00 22,5 10,0 23,1 19,2 11 6 30 16 ENE 1014,8 60 0,0
17.05.2018 19:00:00 23,6 10,3 26,7 19,0 14 7 28 15 NE 1014,4 60 0,0
17.05.2018 18:00:00 24,3 9,5 29,1 18,8 17 9 33 18 NE 1014,4 60 0,0
17.05.2018 17:00:00 24,4 9,2 30,5 18,4 19 11 36 19 NNE 1014,7 60 0,0
17.05.2018 16:00:00 24,3 8,7 28,7 18,1 18 10 36 19 NE 1015,0 57 0,0
17.05.2018 15:00:00 23,1 9,5 25,7 17,9 14 8 32 18 NNE 1015,4 43 0,0
17.05.2018 14:00:00 23,1 9,8 25,6 17,6 20 11 39 21 NE 1015,7 36 0,0
17.05.2018 13:00:00 22,8 10,6 22,8 17,4 23 12 41 22 NE 1015,7 46 0,0
17.05.2018 12:00:00 20,3 9,5 22,7 17,3 19 10 43 23 NNE 1015,9 48 0,0
17.05.2018 11:00:00 20,2 9,7 18,9 17,3 22 12 48 26 N 1015,9 54 0,0
17.05.2018 10:00:00 19,8 10,5 20,5 17,4 13 7 29 16 N 1015,6 60 0,0
17.05.2018 09:00:00 17,9 9,8 14,8 17,5 7 4 24 13 N 1015,7 60 0,0
17.05.2018 08:00:00 15,8 9,2 10,0 17,6 6 4 21 11 N 1015,5 60 0,0
17.05.2018 07:00:00 12,1 8,9 8,7 17,7 7 4 14 8 NNW 1015,4 22 0,0
17.05.2018 06:00:00 12,4 8,9 8,1 17,8 4 2 16 9 W 1015,0 0 0,0
17.05.2018 05:00:00 11,3 8,7 8,1 18,0 2 1 11 6 N 1014,7 0 0,0
17.05.2018 04:00:00 13,2 8,9 9,8 18,1 5 3 17 9 N 1014,8 0 0,0
17.05.2018 03:00:00 14,3 9,1 9,9 18,2 8 4 16 9 NW 1015,0 0 0,0
17.05.2018 02:00:00 13,0 10,0 9,9 18,3 5 3 10 6 NNW 1015,6 0 0,0
17.05.2018 01:00:00 12,6 10,0 10,2 18,3 0 0 10 5 N 1015,8 0 0,0

tt = Température de l'air
td = dewpoint
tt 5cm = Température de l'air 5cm
tt -20cm = Température de l'air -20cm
ff = Vitesse du vent
fx = gusts
dd = Direction du vent
ppp = reduced air pressure
sd = Ensoleillement
rr = Quantités de précipitations

stations d'obs. à proximité